ADDS METAR Data INFO
IDs: Format: Raw Decoded Include TAF

Data at: 0732 UTC 16 Jan 2018

METAR for:KLRD (Laredo Intl Apt, TX, US)
Text:KLRD 160656Z 07007KT 10SM BKN050 15/11 A3027 RMK AO2 SLP258 T01500111
Temperature: 15.0°C ( 59°F)
Dewpoint: 11.1°C ( 52°F) [RH = 77%]
Pressure (altimeter):30.27 inches Hg (1025.1 mb) [Sea level pressure: 1025.8 mb]
Winds:from the ENE (70 degrees) at 8 MPH (7 knots; 3.6 m/s)
Visibility:10 or more sm (16+ km)
Ceiling:5000 feet AGL
Clouds: broken clouds at 5000 feet AGL